Yucata Spirit — CFL4056 — position and weather

sailwx.info

Track history (hours):
 
Tides and Currents Weather Stations Pressure Air Temp Water Temp Dewpoint Dewpoint Depression Visibility Wind Speed Wind Dir Waves Ship Positions

Yucata Spirit

Last reported at 2018-Feb-21 21:00 UTC. Time now 2018-Feb-21 21:27 UTC.
Position N 49°12' W 124°49'.

Length 22 m; draft 4 m.

Type: Tug. MMSI: 316001358.

Date/timePositionNaut miles runAvg speedWind from/ knotsBaromVisibWave heightAir tempDewpointWater temp
2018-Feb-21 21:00N 49°12' W 124°49'0 0.0
2018-Feb-21 20:30N 49°12' W 124°49'0 0.0
2018-Feb-21 20:01N 49°12' W 124°49'0 0.0
2018-Feb-21 19:30N 49°12' W 124°49'0 0.0
2018-Feb-21 19:00N 49°12' W 124°49'0 0.0
2018-Feb-21 18:30N 49°12' W 124°49'0 0.0
2018-Feb-21 18:00N 49°12' W 124°49'0 0.0
2018-Feb-21 17:30N 49°12' W 124°49'0 0.0
2018-Feb-21 17:00N 49°12' W 124°49'0 0.0
2018-Feb-21 16:30N 49°12' W 124°49'0 0.0
2018-Feb-21 16:00N 49°12' W 124°49'0 0.0
2018-Feb-21 15:30N 49°12' W 124°49'0 0.0
2018-Feb-21 14:59N 49°12' W 124°49'0 0.0
2018-Feb-21 14:30N 49°12' W 124°49'0 0.0
2018-Feb-21 14:00N 49°12' W 124°49'0 0.0
2018-Feb-21 13:30N 49°12' W 124°49'0 0.0
2018-Feb-21 13:00N 49°12' W 124°49'0 0.0
2018-Feb-21 12:30N 49°12' W 124°49'0 0.1
2018-Feb-21 12:00N 49°12' W 124°49'0 0.1
2018-Feb-21 11:31N 49°12' W 124°49'0 0.1
2018-Feb-21 11:00N 49°12' W 124°49'0 0.0
2018-Feb-21 10:30N 49°12' W 124°49'0 0.0
2018-Feb-21 10:00N 49°12' W 124°49'0 0.0
2018-Feb-21 09:30N 49°12' W 124°49'0 0.0
2018-Feb-21 09:00N 49°12' W 124°49'0 0.0
2018-Feb-21 08:31N 49°12' W 124°49'0 0.0
2018-Feb-21 08:00N 49°12' W 124°49'0 0.0
2018-Feb-21 07:30N 49°12' W 124°49'0 0.0
2018-Feb-21 07:00N 49°12' W 124°49'0 0.0
2018-Feb-21 06:30N 49°12' W 124°49'0 0.0
2018-Feb-21 06:00N 49°12' W 124°49'0 0.0
2018-Feb-21 05:31N 49°12' W 124°49'0 0.0
2018-Feb-21 05:00N 49°12' W 124°49'0 0.0
2018-Feb-21 04:30N 49°12' W 124°49'0 0.0
2018-Feb-21 04:00N 49°12' W 124°49'0 0.0
2018-Feb-21 03:30N 49°12' W 124°49'0 0.0
2018-Feb-21 03:00N 49°12' W 124°49'0 0.0
2018-Feb-21 02:31N 49°12' W 124°49'0 0.0
2018-Feb-21 02:00N 49°12' W 124°49'0 0.0
2018-Feb-21 01:28N 49°12' W 124°49'0 0.0
2018-Feb-21 01:00N 49°12' W 124°49'0 0.0
2018-Feb-21 00:31N 49°12' W 124°49'0 0.0
2018-Feb-21 00:00N 49°12' W 124°49'0 0.0
2018-Feb-20 23:30N 49°12' W 124°49'0 0.0
2018-Feb-20 23:00N 49°12' W 124°49'0 0.0
2018-Feb-20 22:30N 49°12' W 124°49'0 0.0
2018-Feb-20 22:00N 49°12' W 124°49'0 0.0
2018-Feb-20 21:30N 49°12' W 124°49'0 0.0
2018-Feb-20 21:00N 49°12' W 124°49'0 0.0
2018-Feb-20 20:30N 49°12' W 124°49'0 0.0
2018-Feb-20 20:00N 49°12' W 124°49'0 0.0
2018-Feb-20 19:30N 49°12' W 124°49'0 0.0
2018-Feb-20 19:00N 49°12' W 124°49'0 0.0
2018-Feb-20 18:31N 49°12' W 124°49'0 0.8
2018-Feb-20 18:00N 49°11' W 124°49'3 5.1
2018-Feb-20 17:30N 49°09' W 124°48'3 5.9
2018-Feb-20 16:58N 49°06' W 124°50'4 5.7
2018-Feb-20 16:13N 49°02' W 124°51'10 5.0
2018-Feb-20 14:10N 48°55' W 125°03'1 5.4
2018-Feb-20 13:54N 48°54' W 125°05'2 5.3
2018-Feb-20 13:29N 48°53' W 125°07'3 5.6
2018-Feb-20 12:56N 48°51' W 125°12'2 5.5
2018-Feb-20 12:30N 48°50' W 125°15'2 3.9
2018-Feb-20 12:00N 48°49' W 125°16'3 5.2
2018-Feb-20 11:30N 48°48' W 125°20'3 5.2
2018-Feb-20 11:00N 48°48' W 125°24'3 5.2
2018-Feb-20 10:30N 48°48' W 125°28'3 5.3
2018-Feb-20 10:01N 48°48' W 125°32'3 5.5
2018-Feb-20 09:30N 48°48' W 125°36'3 5.6
2018-Feb-20 09:00N 48°49' W 125°40'3 5.6
2018-Feb-20 08:30N 48°50' W 125°44'3 5.7
2018-Feb-20 08:00N 48°52' W 125°47'3 5.5
2018-Feb-20 07:30N 48°53' W 125°51'3 5.5
2018-Feb-20 07:00N 48°55' W 125°54'3 5.5
2018-Feb-20 06:30N 48°57' W 125°57'3 5.4
2018-Feb-20 06:00N 48°58' W 126°01'3 5.4
2018-Feb-20 05:29N 49°00' W 126°04'3 5.7
2018-Feb-20 05:00N 49°02' W 126°07'3 5.6
2018-Feb-20 04:30N 49°04' W 126°11'3 5.6
2018-Feb-20 04:00N 49°05' W 126°14'3 5.8
2018-Feb-20 03:30N 49°07' W 126°17'4 5.8
2018-Feb-20 02:49N 49°10' W 126°22'2 5.4
2018-Feb-20 02:30N 49°11' W 126°24'3 5.5
2018-Feb-20 02:00N 49°12' W 126°28'3 5.9
2018-Feb-20 01:30N 49°14' W 126°31'3 6.0
2018-Feb-20 01:00N 49°16' W 126°35'3 6.0
2018-Feb-20 00:30N 49°18' W 126°38'3 5.9
2018-Feb-20 00:00N 49°20' W 126°42'3 6.3
2018-Feb-19 23:30N 49°22' W 126°46'3 6.6
2018-Feb-19 23:00N 49°24' W 126°49'3 6.4
2018-Feb-19 22:29N 49°26' W 126°53'3 5.9
2018-Feb-19 21:53N 49°28' W 126°57'  
2018-Feb-16 22:24N 50°36' W 127°27'0 0.0
2018-Feb-16 21:52N 50°36' W 127°27'0 0.0
2018-Feb-16 21:22N 50°36' W 127°27'0 0.0
2018-Feb-16 21:00N 50°36' W 127°27'0 0.1
2018-Feb-16 20:24N 50°36' W 127°27'0 0.0
2018-Feb-16 19:02N 50°36' W 127°27'0 0.1
2018-Feb-16 18:39N 50°36' W 127°27'0 0.0
2018-Feb-16 18:25N 50°36' W 127°27'  
2018-Feb-13 02:29N 50°36' W 127°27'0 0.0
2018-Feb-12 23:01N 50°36' W 127°27'0 0.0
2018-Feb-12 22:57N 50°36' W 127°27'0 0.1
2018-Feb-12 22:30N 50°36' W 127°27'0 0.1
2018-Feb-12 22:00N 50°36' W 127°27'0 0.0
2018-Feb-12 21:30N 50°36' W 127°27'0 0.0
2018-Feb-12 20:58N 50°36' W 127°27'0 0.0
2018-Feb-12 20:12N 50°36' W 127°27'0 0.0
2018-Feb-12 18:33N 50°36' W 127°27'0 0.1
2018-Feb-12 18:29N 50°36' W 127°27'0 0.0
2018-Feb-12 15:13N 50°36' W 127°27'0 0.0
2018-Feb-12 13:26N 50°36' W 127°27'0 0.0
2018-Feb-12 10:36N 50°36' W 127°27'0 0.0
2018-Feb-12 10:13N 50°36' W 127°27'0 0.6
2018-Feb-12 09:51N 50°35' W 127°27'  
Track history (hours):
 
Tides and Currents Weather Stations Pressure Air Temp Water Temp Dewpoint Dewpoint Depression Visibility Wind Speed Wind Dir Waves Ship Positions

Yucata Spirit

Last reported at 2018-Feb-21 21:00 UTC. Time now 2018-Feb-21 21:27 UTC.
Position N 49°12' W 124°49'.

Length 22 m; draft 4 m.

Type: Tug. MMSI: 316001358.

Date/timePositionNaut miles runAvg speedWind from/ knotsBaromVisibWave heightAir tempDewpointWater temp
2018-Feb-21 21:00N 49°12' W 124°49'0 0.0
2018-Feb-21 20:30N 49°12' W 124°49'0 0.0
2018-Feb-21 20:01N 49°12' W 124°49'0 0.0
2018-Feb-21 19:30N 49°12' W 124°49'0 0.0
2018-Feb-21 19:00N 49°12' W 124°49'0 0.0
2018-Feb-21 18:30N 49°12' W 124°49'0 0.0
2018-Feb-21 18:00N 49°12' W 124°49'0 0.0
2018-Feb-21 17:30N 49°12' W 124°49'0 0.0
2018-Feb-21 17:00N 49°12' W 124°49'0 0.0
2018-Feb-21 16:30N 49°12' W 124°49'0 0.0
2018-Feb-21 16:00N 49°12' W 124°49'0 0.0
2018-Feb-21 15:30N 49°12' W 124°49'0 0.0
2018-Feb-21 14:59N 49°12' W 124°49'0 0.0
2018-Feb-21 14:30N 49°12' W 124°49'0 0.0
2018-Feb-21 14:00N 49°12' W 124°49'0 0.0
2018-Feb-21 13:30N 49°12' W 124°49'0 0.0
2018-Feb-21 13:00N 49°12' W 124°49'0 0.0
2018-Feb-21 12:30N 49°12' W 124°49'0 0.1
2018-Feb-21 12:00N 49°12' W 124°49'0 0.1
2018-Feb-21 11:31N 49°12' W 124°49'0 0.1
2018-Feb-21 11:00N 49°12' W 124°49'0 0.0
2018-Feb-21 10:30N 49°12' W 124°49'0 0.0
2018-Feb-21 10:00N 49°12' W 124°49'0 0.0
2018-Feb-21 09:30N 49°12' W 124°49'0 0.0
2018-Feb-21 09:00N 49°12' W 124°49'0 0.0
2018-Feb-21 08:31N 49°12' W 124°49'0 0.0
2018-Feb-21 08:00N 49°12' W 124°49'0 0.0
2018-Feb-21 07:30N 49°12' W 124°49'0 0.0
2018-Feb-21 07:00N 49°12' W 124°49'0 0.0
2018-Feb-21 06:30N 49°12' W 124°49'0 0.0
2018-Feb-21 06:00N 49°12' W 124°49'0 0.0
2018-Feb-21 05:31N 49°12' W 124°49'0 0.0
2018-Feb-21 05:00N 49°12' W 124°49'0 0.0
2018-Feb-21 04:30N 49°12' W 124°49'0 0.0
2018-Feb-21 04:00N 49°12' W 124°49'0 0.0
2018-Feb-21 03:30N 49°12' W 124°49'0 0.0
2018-Feb-21 03:00N 49°12' W 124°49'0 0.0
2018-Feb-21 02:31N 49°12' W 124°49'0 0.0
2018-Feb-21 02:00N 49°12' W 124°49'0 0.0
2018-Feb-21 01:28N 49°12' W 124°49'0 0.0
2018-Feb-21 01:00N 49°12' W 124°49'0 0.0
2018-Feb-21 00:31N 49°12' W 124°49'0 0.0
2018-Feb-21 00:00N 49°12' W 124°49'0 0.0
2018-Feb-20 23:30N 49°12' W 124°49'0 0.0
2018-Feb-20 23:00N 49°12' W 124°49'0 0.0
2018-Feb-20 22:30N 49°12' W 124°49'0 0.0
2018-Feb-20 22:00N 49°12' W 124°49'0 0.0
2018-Feb-20 21:30N 49°12' W 124°49'0 0.0
2018-Feb-20 21:00N 49°12' W 124°49'0 0.0
2018-Feb-20 20:30N 49°12' W 124°49'0 0.0
2018-Feb-20 20:00N 49°12' W 124°49'0 0.0
2018-Feb-20 19:30N 49°12' W 124°49'0 0.0
2018-Feb-20 19:00N 49°12' W 124°49'0 0.0
2018-Feb-20 18:31N 49°12' W 124°49'0 0.8
2018-Feb-20 18:00N 49°11' W 124°49'3 5.1
2018-Feb-20 17:30N 49°09' W 124°48'3 5.9
2018-Feb-20 16:58N 49°06' W 124°50'4 5.7
2018-Feb-20 16:13N 49°02' W 124°51'10 5.0
2018-Feb-20 14:10N 48°55' W 125°03'1 5.4
2018-Feb-20 13:54N 48°54' W 125°05'2 5.3
2018-Feb-20 13:29N 48°53' W 125°07'3 5.6
2018-Feb-20 12:56N 48°51' W 125°12'2 5.5
2018-Feb-20 12:30N 48°50' W 125°15'2 3.9
2018-Feb-20 12:00N 48°49' W 125°16'3 5.2
2018-Feb-20 11:30N 48°48' W 125°20'3 5.2
2018-Feb-20 11:00N 48°48' W 125°24'3 5.2
2018-Feb-20 10:30N 48°48' W 125°28'3 5.3
2018-Feb-20 10:01N 48°48' W 125°32'3 5.5
2018-Feb-20 09:30N 48°48' W 125°36'3 5.6
2018-Feb-20 09:00N 48°49' W 125°40'3 5.6
2018-Feb-20 08:30N 48°50' W 125°44'3 5.7
2018-Feb-20 08:00N 48°52' W 125°47'3 5.5
2018-Feb-20 07:30N 48°53' W 125°51'3 5.5
2018-Feb-20 07:00N 48°55' W 125°54'3 5.5
2018-Feb-20 06:30N 48°57' W 125°57'3 5.4
2018-Feb-20 06:00N 48°58' W 126°01'3 5.4
2018-Feb-20 05:29N 49°00' W 126°04'3 5.7
2018-Feb-20 05:00N 49°02' W 126°07'3 5.6
2018-Feb-20 04:30N 49°04' W 126°11'3 5.6
2018-Feb-20 04:00N 49°05' W 126°14'3 5.8
2018-Feb-20 03:30N 49°07' W 126°17'4 5.8
2018-Feb-20 02:49N 49°10' W 126°22'2 5.4
2018-Feb-20 02:30N 49°11' W 126°24'3 5.5
2018-Feb-20 02:00N 49°12' W 126°28'3 5.9
2018-Feb-20 01:30N 49°14' W 126°31'3 6.0
2018-Feb-20 01:00N 49°16' W 126°35'3 6.0
2018-Feb-20 00:30N 49°18' W 126°38'3 5.9
2018-Feb-20 00:00N 49°20' W 126°42'3 6.3
2018-Feb-19 23:30N 49°22' W 126°46'3 6.6
2018-Feb-19 23:00N 49°24' W 126°49'3 6.4
2018-Feb-19 22:29N 49°26' W 126°53'3 5.9
2018-Feb-19 21:53N 49°28' W 126°57'  
2018-Feb-16 22:24N 50°36' W 127°27'0 0.0
2018-Feb-16 21:52N 50°36' W 127°27'0 0.0
2018-Feb-16 21:22N 50°36' W 127°27'0 0.0
2018-Feb-16 21:00N 50°36' W 127°27'0 0.1
2018-Feb-16 20:24N 50°36' W 127°27'0 0.0
2018-Feb-16 19:02N 50°36' W 127°27'0 0.1
2018-Feb-16 18:39N 50°36' W 127°27'0 0.0
2018-Feb-16 18:25N 50°36' W 127°27'  
2018-Feb-13 02:29N 50°36' W 127°27'0 0.0
2018-Feb-12 23:01N 50°36' W 127°27'0 0.0
2018-Feb-12 22:57N 50°36' W 127°27'0 0.1
2018-Feb-12 22:30N 50°36' W 127°27'0 0.1
2018-Feb-12 22:00N 50°36' W 127°27'0 0.0
2018-Feb-12 21:30N 50°36' W 127°27'0 0.0
2018-Feb-12 20:58N 50°36' W 127°27'0 0.0
2018-Feb-12 20:12N 50°36' W 127°27'0 0.0
2018-Feb-12 18:33N 50°36' W 127°27'0 0.1
2018-Feb-12 18:29N 50°36' W 127°27'0 0.0
2018-Feb-12 15:13N 50°36' W 127°27'0 0.0
2018-Feb-12 13:26N 50°36' W 127°27'0 0.0
2018-Feb-12 10:36N 50°36' W 127°27'0 0.0
2018-Feb-12 10:13N 50°36' W 127°27'0 0.6
2018-Feb-12 09:51N 50°35' W 127°27'  

Dump ship's entire track history